METAR Data
IDs: Format: Raw Decoded Include TAF

Data at: 1411 UTC 27 Nov 2021

TBPB 271400Z 12009KT 9999 FEW018 29/24 Q1014 NOSIG